Time;durP1;ratioP1;P1;durP2;ratioP2;P2;SDS_P1;SDS_P2;PMS_P1;PMS_P2;Temp;Humidity;BMP_temperature;BMP_pressure;BME280_temperature;BME280_humidity;BME280_pressure;Samples;Min_cycle;Max_cycle;Signal;HPM_P1;HPM_P2
2022/09/27 12:42:45;;;;;;;1.40;0.80;;;;;;;8.70;100.00;97585.38;5088733;27;20444;-75
2022/09/27 12:45:13;;;;;;;0.95;0.60;;;;;;;8.46;100.00;97557.91;5059931;28;20040;-76
2022/09/27 12:48:02;;;;;;;0.60;0.60;;;;;;;8.46;100.00;97556.06;5067563;28;20044;-75
2022/09/27 12:50:33;;;;;;;2.00;0.50;;;;;;;8.51;100.00;97552.72;5065615;28;20057;-75
2022/09/27 12:53:05;;;;;;;1.55;0.55;;;;;;;8.50;100.00;97541.03;5066866;28;20485;-76
2022/09/27 12:55:59;;;;;;;0.50;0.50;;;;;;;8.55;100.00;97545.00;5070097;28;20095;-76
2022/09/27 12:58:49;;;;;;;1.23;0.73;;;;;;;8.41;100.00;97541.44;5071557;28;20178;-75
2022/09/27 13:01:27;;;;;;;1.48;0.57;;;;;;;8.46;100.00;97553.34;5065257;28;20059;-75
2022/09/27 13:04:09;;;;;;;1.02;0.70;;;;;;;8.37;100.00;97534.78;5066903;28;20068;-75
2022/09/27 13:06:48;;;;;;;0.65;0.65;;;;;;;8.43;100.00;97533.94;5067753;28;20131;-76
2022/09/27 13:09:41;;;;;;;1.50;0.80;;;;;;;8.37;100.00;97576.25;5067149;28;20642;-76
2022/09/27 13:12:10;;;;;;;8.70;1.08;;;;;;;8.18;100.00;97575.22;5064563;28;20506;-75
2022/09/27 13:14:44;;;;;;;6.55;0.82;;;;;;;8.11;100.00;97556.28;5067630;28;20041;-75
2022/09/27 13:17:32;;;;;;;2.22;1.00;;;;;;;8.06;100.00;97550.63;5065852;28;20040;-76
2022/09/27 13:19:59;;;;;;;1.27;0.80;;;;;;;8.06;100.00;97558.75;5067147;28;20057;-75
2022/09/27 13:22:39;;;;;;;3.88;1.13;;;;;;;7.98;100.00;97546.28;5066128;28;20045;-75
2022/09/27 13:25:39;;;;;;;1.10;0.90;;;;;;;7.98;100.00;97548.97;5067038;28;20127;-75
2022/09/27 13:28:31;;;;;;;1.00;0.63;;;;;;;7.97;100.00;97550.00;5066887;28;20059;-75
2022/09/27 13:31:01;;;;;;;0.55;0.55;;;;;;;8.01;100.00;97549.59;5067016;28;20056;-75
2022/09/27 13:33:42;;;;;;;0.80;0.73;;;;;;;8.22;100.00;97556.66;5066128;28;20503;-75
2022/09/27 13:36:31;;;;;;;3.40;0.80;;;;;;;8.31;100.00;97544.59;5066880;28;20052;-75
2022/09/27 13:39:21;;;;;;;2.47;0.80;;;;;;;8.33;100.00;97542.50;5065798;28;20052;-75
2022/09/27 13:42:13;;;;;;;1.05;0.75;;;;;;;8.47;100.00;97529.81;5065590;28;20055;-75
2022/09/27 13:45:00;;;;;;;2.35;1.05;;;;;;;8.60;100.00;97542.50;5066531;28;20049;-75
2022/09/27 13:47:35;;;;;;;2.40;0.70;;;;;;;8.62;100.00;97545.81;5066273;28;20055;-75
2022/09/27 13:50:14;;;;;;;1.88;0.85;;;;;;;8.55;100.00;97526.88;5065615;28;20067;-76
2022/09/27 13:52:44;;;;;;;2.05;0.80;;;;;;;8.84;100.00;97530.94;5059888;28;20053;-75
2022/09/27 13:55:39;;;;;;;2.17;1.33;;;;;;;8.86;100.00;97531.56;5058244;28;20048;-75
2022/09/27 13:58:15;;;;;;;1.95;1.02;;;;;;;8.76;100.00;97523.06;5052370;28;20053;-75
2022/09/27 14:00:44;;;;;;;3.90;1.17;;;;;;;8.72;100.00;97521.81;5049816;28;20049;-75
2022/09/27 14:03:20;;;;;;;2.00;0.70;;;;;;;8.61;100.00;97519.75;5052330;28;20049;-75
2022/09/27 14:05:50;;;;;;;1.92;0.85;;;;;;;8.58;100.00;97536.44;5053399;28;20055;-75
2022/09/27 14:08:24;;;;;;;1.42;1.00;;;;;;;8.76;100.00;97531.19;5056617;28;20071;-75
2022/09/27 14:10:51;;;;;;;2.22;0.80;;;;;;;8.78;100.00;97529.09;5052681;28;20052;-75
2022/09/27 14:13:20;;;;;;;2.03;1.10;;;;;;;8.84;100.00;97549.91;5052154;28;20048;-75
2022/09/27 14:15:47;;;;;;;2.20;1.17;;;;;;;8.88;100.00;97538.66;5052146;28;20179;-75
2022/09/27 14:18:14;;;;;;;1.33;0.77;;;;;;;8.91;100.00;97539.03;5052541;28;20052;-75
2022/09/27 14:20:45;;;;;;;1.77;0.90;;;;;;;8.78;100.00;97525.56;5052987;28;20162;-76
2022/09/27 14:23:17;;;;;;;3.08;0.93;;;;;;;8.92;100.00;97534.47;5053561;28;20049;-75
2022/09/27 14:25:46;;;;;;;1.33;0.80;;;;;;;8.93;100.00;97514.47;5049866;28;20061;-76
2022/09/27 14:28:21;;;;;;;1.15;1.00;;;;;;;9.12;100.00;97516.25;5052406;28;20095;-75
2022/09/27 14:30:48;;;;;;;1.45;1.08;;;;;;;9.14;100.00;97525.00;5053052;28;20045;-75
2022/09/27 14:33:36;;;;;;;1.00;0.90;;;;;;;9.11;100.00;97506.47;5049063;28;20080;-75
2022/09/27 14:38:51;;;;;;;1.60;0.90;;;;;;;9.00;100.00;97504.41;5054492;28;20077;-75
2022/09/27 14:41:17;;;;;;;1.23;0.80;;;;;;;9.17;100.00;97537.31;5051842;28;20053;-76
2022/09/27 14:43:48;;;;;;;0.85;0.80;;;;;;;9.04;100.00;97525.44;5051229;28;20053;-76
2022/09/27 14:46:26;;;;;;;1.00;0.90;;;;;;;8.94;100.00;97518.81;5052491;28;20056;-76
2022/09/27 14:48:52;;;;;;;1.10;0.90;;;;;;;9.02;100.00;97524.00;5051250;28;20049;-76
2022/09/27 14:51:25;;;;;;;1.38;0.77;;;;;;;8.97;100.00;97510.25;5052488;28;20041;-75
2022/09/27 14:53:57;;;;;;;3.15;0.82;;;;;;;9.10;100.00;97509.38;5051426;28;20057;-75
2022/09/27 14:56:27;;;;;;;0.85;0.80;;;;;;;8.97;100.00;97518.41;5052359;28;20056;-75
2022/09/27 14:58:55;;;;;;;;;;;;;;;9.03;100.00;97545.50;5052558;28;20060;-75
2022/09/27 15:01:23;;;;;;;1.83;1.30;;;;;;;9.14;100.00;97543.97;5052631;28;19921;-75
2022/09/27 15:03:52;;;;;;;2.83;1.30;;;;;;;9.03;100.00;97521.09;5050251;28;20056;-75
2022/09/27 15:06:19;;;;;;;2.63;1.00;;;;;;;9.19;100.00;97530.59;5051363;28;20096;-75
2022/09/27 15:08:48;;;;;;;2.95;1.77;;;;;;;9.39;100.00;97544.06;5051741;28;20283;-75
2022/09/27 15:11:16;;;;;;;2.97;1.40;;;;;;;9.38;100.00;97528.84;5051949;28;20080;-75
2022/09/27 15:13:45;;;;;;;2.45;1.38;;;;;;;9.68;100.00;97540.94;5051271;28;20057;-75
2022/09/27 15:16:18;;;;;;;2.72;1.00;;;;;;;10.11;100.00;97510.34;5051926;28;20045;-75
2022/09/27 15:18:46;;;;;;;1.30;1.08;;;;;;;10.42;100.00;97522.22;5054295;28;20055;-75
2022/09/27 15:21:15;;;;;;;2.97;1.10;;;;;;;10.12;100.00;97524.75;5050150;28;20049;-75
2022/09/27 15:23:44;;;;;;;1.00;0.80;;;;;;;10.14;100.00;97555.25;5050849;28;20059;-75
2022/09/27 15:26:15;;;;;;;2.67;1.60;;;;;;;9.96;100.00;97520.72;5051248;28;20190;-75
2022/09/27 15:28:44;;;;;;;4.63;0.98;;;;;;;9.69;100.00;97529.06;5051759;28;20098;-75
2022/09/27 15:31:12;;;;;;;0.80;0.80;;;;;;;9.63;100.00;97522.63;5051441;28;20064;-75
2022/09/27 15:33:39;;;;;;;0.88;0.73;;;;;;;9.52;100.00;97542.31;5052071;28;20053;-76
2022/09/27 15:36:08;;;;;;;1.13;0.80;;;;;;;9.43;100.00;97547.16;5051081;28;20049;-75
2022/09/27 15:38:37;;;;;;;1.38;0.95;;;;;;;9.88;100.00;97549.81;5049652;28;20053;-76
2022/09/27 15:41:16;;;;;;;1.83;0.88;;;;;;;10.12;100.00;97533.75;5050045;28;20414;-76
2022/09/27 15:43:45;;;;;;;2.55;1.10;;;;;;;10.01;100.00;97520.88;5050639;28;20136;-76
2022/09/27 15:46:27;;;;;;;1.13;0.85;;;;;;;9.90;100.00;97525.16;5051040;28;20048;-76
2022/09/27 15:49:26;;;;;;;2.70;1.10;;;;;;;10.45;100.00;97533.47;5051466;28;20049;-76
2022/09/27 15:51:55;;;;;;;0.98;0.85;;;;;;;10.14;100.00;97530.81;5051099;28;20049;-76
2022/09/27 15:54:22;;;;;;;3.90;1.00;;;;;;;9.98;100.00;97526.75;5050565;28;20198;-76
2022/09/27 15:56:52;;;;;;;3.42;1.35;;;;;;;9.68;100.00;97527.38;5050932;28;20543;-76
2022/09/27 15:59:21;;;;;;;2.10;1.45;;;;;;;9.62;100.00;97522.84;5050855;28;20569;-76
2022/09/27 16:01:48;;;;;;;4.70;1.75;;;;;;;9.71;100.00;97540.50;5045036;28;20060;-76
2022/09/27 16:04:15;;;;;;;2.80;1.30;;;;;;;9.67;100.00;97526.56;5050512;28;20139;-77
2022/09/27 16:06:43;;;;;;;3.95;1.10;;;;;;;9.54;100.00;97530.22;5050898;28;20049;-74
2022/09/27 16:09:18;;;;;;;2.30;1.02;;;;;;;9.75;100.00;97541.75;5057644;28;20403;-76
2022/09/27 16:11:45;;;;;;;1.63;1.23;;;;;;;9.80;100.00;97546.50;5049196;28;20523;-75
2022/09/27 16:14:15;;;;;;;2.88;1.50;;;;;;;9.75;100.00;97533.59;5050650;28;20056;-76
2022/09/27 16:16:43;;;;;;;2.85;1.40;;;;;;;9.69;100.00;97548.06;5052012;28;20133;-76
2022/09/27 16:19:09;;;;;;;2.60;1.15;;;;;;;9.66;100.00;97534.94;5050556;28;20052;-78
2022/09/27 16:21:36;;;;;;;4.07;1.50;;;;;;;9.79;100.00;97534.03;5051172;28;20404;-77
2022/09/27 16:24:03;;;;;;;2.65;1.38;;;;;;;9.76;100.00;97550.75;5053642;28;20083;-77
2022/09/27 16:26:29;;;;;;;3.50;1.25;;;;;;;9.82;100.00;97558.00;5050663;28;20472;-77
2022/09/27 16:28:56;;;;;;;2.35;1.48;;;;;;;9.60;100.00;97543.94;5053546;28;20056;-76
2022/09/27 16:31:24;;;;;;;3.60;1.50;;;;;;;9.52;100.00;97532.28;5050542;28;20428;-76
2022/09/27 16:33:51;;;;;;;3.13;1.58;;;;;;;9.61;100.00;97548.31;5055132;28;20053;-76
2022/09/27 16:36:19;;;;;;;2.90;1.60;;;;;;;9.56;100.00;97538.13;5052170;28;20048;-77
2022/09/27 16:38:49;;;;;;;2.45;1.27;;;;;;;9.59;100.00;97559.41;5051631;28;20041;-77
2022/09/27 16:41:16;;;;;;;3.70;1.77;;;;;;;9.61;100.00;97554.56;5049953;28;20114;-77
2022/09/27 16:43:43;;;;;;;4.18;1.50;;;;;;;9.37;100.00;97538.00;5053023;28;20505;-77
2022/09/27 16:46:11;;;;;;;3.63;1.17;;;;;;;9.44;100.00;97559.69;5049911;28;20064;-76
2022/09/27 16:48:39;;;;;;;2.08;1.20;;;;;;;9.46;100.00;97543.19;5051538;28;20049;-76
2022/09/27 16:53:51;;;;;;;2.30;1.02;;;;;;;9.53;100.00;97565.69;5054624;28;20450;-77
2022/09/27 16:56:19;;;;;;;2.80;1.42;;;;;;;9.27;100.00;97531.41;5039835;28;20047;-77
2022/09/27 16:58:46;;;;;;;2.17;1.25;;;;;;;9.17;100.00;97535.41;5047177;28;20393;-76
2022/09/27 17:01:15;;;;;;;6.97;1.30;;;;;;;9.12;100.00;97537.09;5051236;28;20045;-76
2022/09/27 17:03:44;;;;;;;2.58;1.38;;;;;;;9.10;100.00;97539.19;5055164;28;20555;-76
2022/09/27 17:06:10;;;;;;;1.65;1.30;;;;;;;9.10;100.00;97539.19;5048429;28;20629;-77
2022/09/27 17:08:37;;;;;;;4.82;1.50;;;;;;;9.09;100.00;97546.47;5052127;28;20059;-77
2022/09/27 17:11:04;;;;;;;1.40;0.73;;;;;;;9.15;100.00;97553.78;5055308;28;20067;-77
2022/09/27 17:13:32;;;;;;;1.45;1.08;;;;;;;9.05;100.00;97553.41;5050881;28;20045;-77
2022/09/27 17:15:58;;;;;;;3.03;1.05;;;;;;;9.32;100.00;97574.97;5047833;28;20044;-77
2022/09/27 17:18:25;;;;;;;1.98;1.00;;;;;;;9.07;100.00;97559.44;5057299;28;20079;-76
2022/09/27 17:20:53;;;;;;;1.52;0.98;;;;;;;9.10;100.00;97561.72;5058862;28;20056;-77
2022/09/27 17:23:19;;;;;;;1.92;0.90;;;;;;;9.08;100.00;97554.84;5049520;28;20044;-77
2022/09/27 17:25:46;;;;;;;2.03;1.27;;;;;;;9.25;100.00;97566.88;5052420;28;20052;-77
2022/09/27 17:28:13;;;;;;;2.42;0.77;;;;;;;9.11;100.00;97557.13;5052903;28;20142;-76
2022/09/27 17:30:43;;;;;;;1.83;1.05;;;;;;;9.02;100.00;97562.78;5052280;28;20071;-77
2022/09/27 17:33:10;;;;;;;1.98;1.20;;;;;;;9.09;100.00;97573.59;5050410;28;20073;-77
2022/09/27 17:35:37;;;;;;;1.83;0.90;;;;;;;9.20;100.00;97585.66;5054721;28;20508;-77
2022/09/27 17:38:05;;;;;;;2.05;1.45;;;;;;;9.03;100.00;97566.31;5054165;28;20532;-77
2022/09/27 17:40:33;;;;;;;4.13;1.20;;;;;;;9.06;100.00;97565.88;5065027;28;20122;-77
2022/09/27 17:42:59;;;;;;;2.28;1.08;;;;;;;8.99;100.00;97570.53;5054914;28;20142;-77
2022/09/27 17:45:26;;;;;;;7.75;0.90;;;;;;;8.98;100.00;97582.41;5064961;28;20396;-77
2022/09/27 17:50:36;;;;;;;1.13;0.80;;;;;;;8.91;100.00;97573.47;5052748;28;20211;-77
2022/09/27 17:53:03;;;;;;;1.17;0.88;;;;;;;8.83;100.00;97569.09;5051702;28;20057;-76
2022/09/27 17:55:31;;;;;;;1.33;0.70;;;;;;;8.83;100.00;97577.22;5058817;28;20083;-76
2022/09/27 17:57:57;;;;;;;3.83;0.75;;;;;;;8.79;100.00;97562.44;5054420;28;20056;-76
2022/09/27 18:00:24;;;;;;;6.40;0.85;;;;;;;8.84;100.00;97593.28;5054489;28;20045;-76
2022/09/27 18:02:51;;;;;;;2.28;0.70;;;;;;;8.79;100.00;97587.69;5050375;28;20210;-76
2022/09/27 18:05:19;;;;;;;4.30;1.45;;;;;;;8.67;100.00;97573.09;5054354;28;20494;-76
2022/09/27 18:07:46;;;;;;;4.72;1.10;;;;;;;8.72;100.00;97605.81;5048876;28;20049;-77
2022/09/27 18:10:12;;;;;;;4.10;1.33;;;;;;;8.68;100.00;97591.84;5055626;28;20048;-77
2022/09/27 18:12:41;;;;;;;4.43;1.30;;;;;;;8.59;100.00;97573.34;5054589;28;20056;-76
2022/09/27 18:15:09;;;;;;;3.38;1.40;;;;;;;8.57;100.00;97580.84;5041850;28;20084;-77
2022/09/27 18:17:36;;;;;;;3.17;1.23;;;;;;;8.61;100.00;97591.03;5050123;28;20058;-77
2022/09/27 18:20:02;;;;;;;2.42;1.42;;;;;;;8.43;100.00;97574.56;5053574;28;20456;-77
2022/09/27 18:22:29;;;;;;;3.08;1.20;;;;;;;8.33;100.00;97578.53;5054164;28;20139;-77
2022/09/27 18:24:56;;;;;;;1.33;0.85;;;;;;;8.28;100.00;97572.06;5049621;28;20060;-77
2022/09/27 18:27:23;;;;;;;3.08;1.30;;;;;;;8.22;100.00;97586.44;5054713;28;20416;-76
2022/09/27 18:29:51;;;;;;;3.97;1.83;;;;;;;8.28;100.00;97601.84;5055088;28;20062;-76
2022/09/27 18:32:17;;;;;;;3.22;1.48;;;;;;;8.17;100.00;97591.66;5052554;28;20499;-76
2022/09/27 18:34:44;;;;;;;3.13;1.45;;;;;;;8.21;100.00;97587.50;5060859;28;20048;-77
2022/09/27 18:37:10;;;;;;;2.70;1.63;;;;;;;8.30;100.00;97613.31;5054899;28;20044;-77
2022/09/27 18:39:39;;;;;;;7.95;1.48;;;;;;;8.10;100.00;97606.03;5055280;28;20518;-77
2022/09/27 18:42:05;;;;;;;6.57;2.28;;;;;;;8.07;100.00;97586.66;5052211;28;20442;-76
2022/09/27 18:44:32;;;;;;;3.45;1.80;;;;;;;8.00;100.00;97583.13;5050599;28;20057;-77
2022/09/27 18:46:59;;;;;;;4.88;2.05;;;;;;;8.03;100.00;97604.38;5052245;28;20056;-76
2022/09/27 18:49:27;;;;;;;4.13;1.70;;;;;;;8.09;100.00;97609.75;5050338;28;20052;-77
2022/09/27 18:51:53;;;;;;;6.20;1.33;;;;;;;8.13;100.00;97613.72;5051458;28;20090;-76
2022/09/27 18:54:21;;;;;;;3.53;1.55;;;;;;;7.87;100.00;97597.47;5050638;28;20514;-79
2022/09/27 18:56:49;;;;;;;2.80;1.48;;;;;;;8.00;100.00;97613.72;5052832;28;20056;-76
2022/09/27 18:59:19;;;;;;;2.80;1.13;;;;;;;7.90;100.00;97599.75;5048787;28;20049;-77
2022/09/27 19:01:46;;;;;;;1.38;1.13;;;;;;;7.97;100.00;97614.94;5050548;28;20135;-77
2022/09/27 19:04:16;;;;;;;1.75;0.93;;;;;;;7.94;100.00;97596.44;5049950;28;20043;-76
2022/09/27 19:06:42;;;;;;;1.75;1.10;;;;;;;8.02;100.00;97619.75;5049133;28;20068;-76
2022/09/27 19:09:10;;;;;;;2.67;1.30;;;;;;;7.86;100.00;97615.56;5049888;28;20051;-76
2022/09/27 19:11:37;;;;;;;3.25;1.35;;;;;;;7.81;100.00;97604.53;5055647;28;20045;-77
2022/09/27 19:14:04;;;;;;;2.10;1.30;;;;;;;7.86;100.00;97629.09;5050259;28;20646;-77
2022/09/27 19:16:30;;;;;;;2.75;1.38;;;;;;;7.76;100.00;97612.44;5050986;28;20053;-76
2022/09/27 19:18:57;;;;;;;5.20;1.85;;;;;;;7.85;100.00;97630.13;5053689;28;20041;-77
2022/09/27 19:21:27;;;;;;;3.17;1.98;;;;;;;7.67;100.00;97614.50;5060848;28;20057;-77
2022/09/27 19:23:54;;;;;;;6.40;2.30;;;;;;;7.69;100.00;97620.50;5056343;28;20060;-77
2022/09/27 19:26:22;;;;;;;6.60;2.28;;;;;;;7.86;100.00;97639.06;5051208;28;20048;-77
2022/09/27 19:28:50;;;;;;;4.88;1.80;;;;;;;7.74;100.00;97634.28;5053439;28;20416;-77
2022/09/27 19:31:19;;;;;;;3.90;1.58;;;;;;;7.65;100.00;97640.06;5054461;28;20048;-77
2022/09/27 19:33:45;;;;;;;3.42;1.85;;;;;;;7.47;100.00;97646.03;5057217;28;20063;-77
2022/09/27 19:36:14;;;;;;;3.53;1.30;;;;;;;7.39;100.00;97628.13;5048619;28;20056;-77
2022/09/27 19:38:42;;;;;;;2.23;1.37;;;;;;;7.38;100.00;97637.28;5056655;28;20056;-77
2022/09/27 19:41:11;;;;;;;3.67;1.90;;;;;;;7.16;100.00;97644.66;5046004;28;20339;-77
2022/09/27 19:43:38;;;;;;;1.85;1.05;;;;;;;7.09;100.00;97656.28;5048463;28;20407;-76
2022/09/27 19:46:06;;;;;;;3.42;1.20;;;;;;;7.11;100.00;97649.84;5056530;28;20128;-77
2022/09/27 19:48:32;;;;;;;2.63;0.85;;;;;;;7.00;100.00;97635.00;5050558;28;20053;-76
2022/09/27 19:51:01;;;;;;;1.33;1.00;;;;;;;6.94;100.00;97627.69;5051777;28;20064;-77
2022/09/27 19:53:30;;;;;;;2.90;1.10;;;;;;;7.02;100.00;97630.25;5048157;28;20055;-77
2022/09/27 19:55:58;;;;;;;3.25;1.33;;;;;;;7.14;100.00;97644.03;5052052;28;20051;-76
2022/09/27 19:58:26;;;;;;;1.33;0.90;;;;;;;7.11;100.00;97620.13;5048564;28;20063;-77
2022/09/27 20:01:04;;;;;;;1.00;0.82;;;;;;;6.91;100.00;97607.34;5055498;28;20044;-77
2022/09/27 20:03:31;;;;;;;2.30;1.67;;;;;;;6.91;100.00;97628.97;5048541;28;20048;-77
2022/09/27 20:05:59;;;;;;;3.45;0.88;;;;;;;6.69;100.00;97606.59;5047075;28;20049;-77
2022/09/27 20:08:25;;;;;;;1.52;0.88;;;;;;;6.76;100.00;97603.91;5058211;28;20049;-77
2022/09/27 20:10:56;;;;;;;1.67;0.82;;;;;;;6.93;100.00;97615.25;5050408;28;20061;-76
2022/09/27 20:13:25;;;;;;;2.85;1.00;;;;;;;6.97;100.00;97611.94;5047171;28;20445;-77
2022/09/27 20:15:53;;;;;;;1.88;0.88;;;;;;;6.99;100.00;97603.63;5054724;28;20059;-77
2022/09/27 20:18:20;;;;;;;3.05;0.65;;;;;;;7.06;100.00;97609.88;5049142;28;20446;-76
2022/09/27 20:20:47;;;;;;;0.82;0.70;;;;;;;6.84;100.00;97591.09;5050130;28;20069;-76
2022/09/27 20:23:18;;;;;;;4.90;1.00;;;;;;;6.85;100.00;97586.50;5051865;28;20135;-77
2022/09/27 20:25:45;;;;;;;4.43;0.95;;;;;;;7.01;100.00;97596.97;5054063;28;20060;-76
2022/09/27 20:28:11;;;;;;;1.65;0.73;;;;;;;6.96;100.00;97588.66;5052028;28;20052;-76
2022/09/27 20:30:39;;;;;;;1.25;0.75;;;;;;;6.99;100.00;97588.25;5055207;28;20048;-77
2022/09/27 20:35:51;;;;;;;1.73;0.82;;;;;;;6.98;100.00;97581.16;5047800;28;20599;-77
2022/09/27 20:38:17;;;;;;;2.50;1.10;;;;;;;7.06;100.00;97605.34;5055648;28;20048;-76
2022/09/27 20:40:44;;;;;;;1.92;0.80;;;;;;;7.01;100.00;97596.16;5052570;28;20060;-77
2022/09/27 20:43:10;;;;;;;3.10;0.82;;;;;;;7.02;100.00;97593.25;5047934;28;20040;-77
2022/09/27 20:45:37;;;;;;;1.27;0.77;;;;;;;7.00;100.00;97586.38;5052829;28;20056;-76
2022/09/27 20:48:05;;;;;;;0.93;0.63;;;;;;;6.91;100.00;97574.94;5051708;28;20055;-77
2022/09/27 20:50:31;;;;;;;4.22;0.90;;;;;;;6.95;100.00;97586.97;5051381;28;20052;-77
2022/09/27 20:52:58;;;;;;;3.00;0.90;;;;;;;6.74;100.00;97574.41;5049548;28;20060;-76
2022/09/27 20:55:24;;;;;;;0.70;0.65;;;;;;;6.71;100.00;97578.34;5047661;28;20140;-77
2022/09/27 20:57:52;;;;;;;0.90;0.80;;;;;;;6.78;100.00;97578.38;5051578;28;20071;-77
2022/09/27 21:00:18;;;;;;;0.50;0.50;;;;;;;6.80;100.00;97579.00;5055954;28;20484;-77
2022/09/27 21:02:45;;;;;;;0.45;0.45;;;;;;;6.93;100.00;97593.63;5048440;28;20044;-77
2022/09/27 21:05:13;;;;;;;1.30;0.60;;;;;;;6.82;100.00;97570.69;5058503;28;20048;-77
2022/09/27 21:07:40;;;;;;;1.65;0.90;;;;;;;7.01;100.00;97577.25;5057572;28;20461;-77
2022/09/27 21:10:07;;;;;;;2.95;1.58;;;;;;;6.97;100.00;97579.53;5054912;28;20583;-77
2022/09/27 21:12:34;;;;;;;1.90;1.48;;;;;;;7.06;100.00;97580.16;5063335;28;20045;-77
2022/09/27 21:15:00;;;;;;;1.45;0.90;;;;;;;7.02;100.00;97568.13;5056215;28;20049;-76
2022/09/27 21:17:27;;;;;;;3.58;0.80;;;;;;;7.02;100.00;97582.44;5055444;28;20057;-77
2022/09/27 21:19:53;;;;;;;2.88;0.85;;;;;;;6.87;100.00;97587.16;5055599;28;20048;-76
2022/09/27 21:22:21;;;;;;;0.95;0.77;;;;;;;6.68;100.00;97565.22;5055005;28;20049;-77
2022/09/27 21:24:48;;;;;;;3.35;0.90;;;;;;;6.77;100.00;97565.06;5055449;28;20495;-77
2022/09/27 21:27:14;;;;;;;3.25;1.30;;;;;;;6.71;100.00;97555.91;5046652;28;20602;-76
2022/09/27 21:29:41;;;;;;;3.20;0.90;;;;;;;6.65;100.00;97551.28;5057133;28;20050;-76
2022/09/27 21:32:07;;;;;;;2.30;0.88;;;;;;;6.65;100.00;97560.22;5053863;28;20049;-77
2022/09/27 21:34:34;;;;;;;2.25;1.17;;;;;;;6.60;100.00;97549.19;5058279;28;20049;-76
2022/09/27 21:37:01;;;;;;;1.80;1.23;;;;;;;6.80;100.00;97572.78;5056515;28;20060;-76
2022/09/27 21:39:30;;;;;;;1.55;1.10;;;;;;;6.62;100.00;97549.00;5053002;28;20060;-77
2022/09/27 21:41:56;;;;;;;1.65;1.10;;;;;;;6.63;100.00;97550.69;5055274;28;20571;-77
2022/09/27 21:44:23;;;;;;;0.85;0.85;;;;;;;6.85;100.00;97567.59;5055435;28;20045;-77
2022/09/27 21:46:51;;;;;;;3.13;1.00;;;;;;;6.76;100.00;97552.59;5057930;28;20060;-77
2022/09/27 21:49:17;;;;;;;3.97;1.13;;;;;;;6.82;100.00;97555.34;5057143;28;20128;-77
2022/09/27 21:51:44;;;;;;;3.42;0.80;;;;;;;6.80;100.00;97545.78;5055494;28;20053;-77
2022/09/27 21:54:13;;;;;;;1.58;0.80;;;;;;;6.97;100.00;97566.00;5053425;28;20052;-77
2022/09/27 21:56:42;;;;;;;1.60;0.70;;;;;;;6.90;100.00;97538.94;5051710;28;20052;-77
2022/09/27 21:59:11;;;;;;;1.65;1.02;;;;;;;6.91;100.00;97527.13;5054047;28;20053;-77
2022/09/27 22:01:37;;;;;;;2.78;1.25;;;;;;;7.10;100.00;97554.41;5059175;28;20056;-77
2022/09/27 22:04:06;;;;;;;1.52;0.95;;;;;;;7.08;100.00;97542.97;5059585;28;20044;-77
2022/09/27 22:06:35;;;;;;;3.83;1.05;;;;;;;7.09;100.00;97525.72;5055427;28;20095;-77
2022/09/27 22:09:02;;;;;;;2.30;0.88;;;;;;;7.23;100.00;97550.94;5063211;28;20053;-77
2022/09/27 22:11:31;;;;;;;1.67;1.23;;;;;;;7.18;100.00;97532.63;5054180;28;20061;-77
2022/09/27 22:14:00;;;;;;;2.58;1.20;;;;;;;7.24;100.00;97531.81;5056094;28;20052;-77
2022/09/27 22:16:28;;;;;;;1.38;0.77;;;;;;;7.19;100.00;97520.75;5056149;28;20087;-77
2022/09/27 22:18:56;;;;;;;3.10;0.90;;;;;;;7.32;100.00;97530.78;5057254;28;20088;-77
2022/09/27 22:21:25;;;;;;;0.93;0.80;;;;;;;7.31;100.00;97512.06;5055954;28;20397;-77
2022/09/27 22:23:54;;;;;;;0.65;0.60;;;;;;;7.31;100.00;97504.78;5057703;28;20504;-77
2022/09/27 22:26:22;;;;;;;1.20;0.95;;;;;;;7.39;100.00;97517.28;5048350;28;20095;-76
2022/09/27 22:28:48;;;;;;;0.88;0.70;;;;;;;7.31;100.00;97496.69;5059717;28;20049;-77
2022/09/27 22:31:19;;;;;;;1.80;0.90;;;;;;;7.28;100.00;97480.88;5055023;28;20052;-76
2022/09/27 22:33:48;;;;;;;0.95;0.88;;;;;;;7.26;100.00;97485.66;5056564;28;20049;-77
2022/09/27 22:36:15;;;;;;;1.87;0.80;;;;;;;7.41;100.00;97499.81;5056042;28;20067;-77
2022/09/27 22:38:41;;;;;;;1.40;0.80;;;;;;;7.38;100.00;97488.59;5055405;28;20064;-76
2022/09/27 22:41:08;;;;;;;2.78;0.90;;;;;;;7.31;100.00;97468.81;5054346;28;20041;-76
2022/09/27 22:43:34;;;;;;;1.70;0.88;;;;;;;7.39;100.00;97468.59;5051838;28;20080;-76
2022/09/27 22:46:01;;;;;;;1.50;0.90;;;;;;;7.26;100.00;97451.34;5051914;28;20787;-76
2022/09/27 22:48:30;;;;;;;1.65;1.05;;;;;;;7.26;100.00;97437.81;5051310;28;20053;-76
2022/09/27 22:50:58;;;;;;;1.95;0.95;;;;;;;7.30;100.00;97445.53;5056177;28;20040;-76
2022/09/27 22:53:26;;;;;;;1.65;0.98;;;;;;;7.29;100.00;97439.28;5056363;28;20055;-76
2022/09/27 22:55:56;;;;;;;1.75;0.65;;;;;;;7.32;100.00;97443.47;5054111;28;20048;-76
2022/09/27 22:58:23;;;;;;;2.58;1.27;;;;;;;7.32;100.00;97413.72;5059882;28;20052;-76
2022/09/27 23:00:50;;;;;;;1.35;1.05;;;;;;;7.37;100.00;97427.44;5053955;28;20049;-76
2022/09/27 23:03:16;;;;;;;1.90;0.90;;;;;;;7.47;100.00;97437.84;5052844;28;20055;-76
2022/09/27 23:05:44;;;;;;;1.55;0.70;;;;;;;7.31;100.00;97407.47;5053268;28;20382;-76
2022/09/27 23:08:11;;;;;;;2.88;0.98;;;;;;;7.47;100.00;97424.31;5054016;28;20056;-76
2022/09/27 23:10:39;;;;;;;5.03;0.93;;;;;;;7.36;100.00;97406.84;5053220;28;20064;-76
2022/09/27 23:13:06;;;;;;;1.30;1.05;;;;;;;7.39;100.00;97412.69;5052028;28;20083;-76
2022/09/27 23:15:33;;;;;;;2.22;0.68;;;;;;;7.39;100.00;97401.88;5041237;28;20057;-76
2022/09/27 23:18:01;;;;;;;2.50;0.85;;;;;;;7.53;100.00;97415.41;5037344;28;20049;-77
2022/09/27 23:20:27;;;;;;;1.95;0.90;;;;;;;7.62;100.00;97423.06;5055989;28;20132;-77
2022/09/27 23:22:57;;;;;;;2.03;0.80;;;;;;;7.48;100.00;97383.53;5054509;28;20132;-76
2022/09/27 23:25:23;;;;;;;0.70;0.70;;;;;;;7.49;100.00;97400.63;5051522;28;20085;-76
2022/09/27 23:27:51;;;;;;;2.00;0.60;;;;;;;7.40;100.00;97387.28;5050350;28;20053;-76
2022/09/27 23:30:20;;;;;;;1.52;0.75;;;;;;;7.37;100.00;97384.19;5053083;28;20076;-76
2022/09/27 23:32:53;;;;;;;2.22;0.85;;;;;;;7.34;100.00;97377.31;5058268;28;20075;-76
2022/09/27 23:35:19;;;;;;;2.83;0.63;;;;;;;7.35;100.00;97373.59;5058449;28;20049;-76
2022/09/27 23:37:46;;;;;;;1.98;0.85;;;;;;;7.32;100.00;97359.66;5056313;28;20045;-76
2022/09/27 23:40:14;;;;;;;5.07;0.75;;;;;;;7.36;100.00;97336.56;5053884;28;20045;-76
2022/09/27 23:42:40;;;;;;;3.92;0.88;;;;;;;7.41;100.00;97326.78;5057310;28;20438;-76
2022/09/27 23:45:07;;;;;;;1.02;0.73;;;;;;;7.45;100.00;97324.47;5049276;28;20088;-76
2022/09/27 23:47:34;;;;;;;3.17;1.38;;;;;;;7.35;100.00;97321.41;5057923;28;20099;-76
2022/09/27 23:50:00;;;;;;;1.50;0.90;;;;;;;7.38;100.00;97327.22;5054068;28;20076;-76
2022/09/27 23:52:27;;;;;;;0.70;0.70;;;;;;;7.37;100.00;97317.44;5058729;28;20063;-76
2022/09/27 23:54:54;;;;;;;2.15;0.50;;;;;;;7.41;100.00;97310.56;5062177;28;20511;-76
2022/09/27 23:57:22;;;;;;;0.65;0.63;;;;;;;7.35;100.00;97306.00;5050841;28;20117;-76
2022/09/27 23:59:48;;;;;;;2.22;0.63;;;;;;;7.51;100.00;97312.84;5055342;28;20488;-76
